sensor_id;sensor_type;location;lat;lon;timestamp;P1;durP1;ratioP1;P2;durP2;ratioP2
6392;SDS011;3229;42.674;23.282;2023-06-22T00:01:47;11.70;;;7.35;;
6392;SDS011;3229;42.674;23.282;2023-06-22T00:04:15;7.73;;;6.63;;
6392;SDS011;3229;42.674;23.282;2023-06-22T00:06:42;7.93;;;7.13;;
6392;SDS011;3229;42.674;23.282;2023-06-22T00:09:09;7.65;;;6.88;;
6392;SDS011;3229;42.674;23.282;2023-06-22T00:11:36;11.90;;;7.43;;
6392;SDS011;3229;42.674;23.282;2023-06-22T00:14:04;8.40;;;7.27;;
6392;SDS011;3229;42.674;23.282;2023-06-22T00:16:31;11.35;;;7.30;;
6392;SDS011;3229;42.674;23.282;2023-06-22T00:18:58;7.90;;;6.67;;
6392;SDS011;3229;42.674;23.282;2023-06-22T00:21:27;7.40;;;6.70;;
6392;SDS011;3229;42.674;23.282;2023-06-22T00:23:54;10.15;;;6.75;;
6392;SDS011;3229;42.674;23.282;2023-06-22T00:26:22;8.63;;;6.47;;
6392;SDS011;3229;42.674;23.282;2023-06-22T00:28:49;7.30;;;6.60;;
6392;SDS011;3229;42.674;23.282;2023-06-22T00:31:18;8.93;;;6.87;;
6392;SDS011;3229;42.674;23.282;2023-06-22T00:33:45;16.57;;;7.63;;
6392;SDS011;3229;42.674;23.282;2023-06-22T00:36:12;8.27;;;6.28;;
6392;SDS011;3229;42.674;23.282;2023-06-22T00:38:41;11.03;;;7.07;;
6392;SDS011;3229;42.674;23.282;2023-06-22T00:41:08;12.20;;;7.53;;
6392;SDS011;3229;42.674;23.282;2023-06-22T00:43:35;8.47;;;7.10;;
6392;SDS011;3229;42.674;23.282;2023-06-22T00:46:01;8.47;;;7.07;;
6392;SDS011;3229;42.674;23.282;2023-06-22T00:48:30;8.37;;;7.57;;
6392;SDS011;3229;42.674;23.282;2023-06-22T00:50:57;8.93;;;6.60;;
6392;SDS011;3229;42.674;23.282;2023-06-22T00:53:24;8.30;;;6.60;;
6392;SDS011;3229;42.674;23.282;2023-06-22T00:55:51;7.70;;;6.90;;
6392;SDS011;3229;42.674;23.282;2023-06-22T00:58:17;10.27;;;7.32;;
6392;SDS011;3229;42.674;23.282;2023-06-22T01:00:47;6.70;;;6.03;;
6392;SDS011;3229;42.674;23.282;2023-06-22T01:03:14;7.80;;;7.00;;
6392;SDS011;3229;42.674;23.282;2023-06-22T01:05:43;6.93;;;6.33;;
6392;SDS011;3229;42.674;23.282;2023-06-22T01:08:16;11.35;;;6.57;;
6392;SDS011;3229;42.674;23.282;2023-06-22T01:10:54;7.00;;;6.40;;
6392;SDS011;3229;42.674;23.282;2023-06-22T01:13:35;9.37;;;7.03;;
6392;SDS011;3229;42.674;23.282;2023-06-22T01:16:09;8.33;;;6.90;;
6392;SDS011;3229;42.674;23.282;2023-06-22T01:18:42;8.47;;;6.87;;
6392;SDS011;3229;42.674;23.282;2023-06-22T01:21:13;9.03;;;6.87;;
6392;SDS011;3229;42.674;23.282;2023-06-22T01:23:50;7.73;;;6.47;;
6392;SDS011;3229;42.674;23.282;2023-06-22T01:26:25;7.90;;;7.20;;
6392;SDS011;3229;42.674;23.282;2023-06-22T01:29:02;8.23;;;7.03;;
6392;SDS011;3229;42.674;23.282;2023-06-22T01:31:32;7.57;;;6.23;;
6392;SDS011;3229;42.674;23.282;2023-06-22T01:34:01;7.47;;;6.77;;
6392;SDS011;3229;42.674;23.282;2023-06-22T01:36:29;8.73;;;7.87;;
6392;SDS011;3229;42.674;23.282;2023-06-22T01:38:58;8.07;;;7.27;;
6392;SDS011;3229;42.674;23.282;2023-06-22T01:41:25;8.73;;;7.30;;
6392;SDS011;3229;42.674;23.282;2023-06-22T01:43:54;9.17;;;6.90;;
6392;SDS011;3229;42.674;23.282;2023-06-22T01:46:23;8.82;;;6.85;;
6392;SDS011;3229;42.674;23.282;2023-06-22T01:48:51;11.97;;;6.70;;
6392;SDS011;3229;42.674;23.282;2023-06-22T01:51:19;7.53;;;6.83;;
6392;SDS011;3229;42.674;23.282;2023-06-22T01:53:47;7.80;;;7.00;;
6392;SDS011;3229;42.674;23.282;2023-06-22T01:56:15;8.27;;;7.47;;
6392;SDS011;3229;42.674;23.282;2023-06-22T01:58:45;7.20;;;6.50;;
6392;SDS011;3229;42.674;23.282;2023-06-22T02:01:17;10.47;;;7.97;;
6392;SDS011;3229;42.674;23.282;2023-06-22T02:03:56;8.33;;;7.53;;
6392;SDS011;3229;42.674;23.282;2023-06-22T02:06:31;9.30;;;7.90;;
6392;SDS011;3229;42.674;23.282;2023-06-22T02:09:02;8.80;;;7.23;;
6392;SDS011;3229;42.674;23.282;2023-06-22T02:11:35;9.00;;;7.53;;
6392;SDS011;3229;42.674;23.282;2023-06-22T02:14:03;9.33;;;7.40;;
6392;SDS011;3229;42.674;23.282;2023-06-22T02:16:31;13.87;;;7.43;;
6392;SDS011;3229;42.674;23.282;2023-06-22T02:19:00;10.67;;;7.80;;
6392;SDS011;3229;42.674;23.282;2023-06-22T02:21:28;8.37;;;6.93;;
6392;SDS011;3229;42.674;23.282;2023-06-22T02:23:55;7.13;;;6.43;;
6392;SDS011;3229;42.674;23.282;2023-06-22T02:26:22;7.33;;;6.63;;
6392;SDS011;3229;42.674;23.282;2023-06-22T02:28:50;7.90;;;7.10;;
6392;SDS011;3229;42.674;23.282;2023-06-22T02:31:16;7.97;;;7.03;;
6392;SDS011;3229;42.674;23.282;2023-06-22T02:33:44;7.90;;;6.60;;
6392;SDS011;3229;42.674;23.282;2023-06-22T02:36:17;12.37;;;6.53;;
6392;SDS011;3229;42.674;23.282;2023-06-22T02:38:50;7.40;;;6.70;;
6392;SDS011;3229;42.674;23.282;2023-06-22T02:41:17;8.07;;;6.90;;
6392;SDS011;3229;42.674;23.282;2023-06-22T02:43:44;8.40;;;6.90;;
6392;SDS011;3229;42.674;23.282;2023-06-22T02:46:11;9.77;;;7.13;;
6392;SDS011;3229;42.674;23.282;2023-06-22T02:48:38;8.43;;;7.23;;
6392;SDS011;3229;42.674;23.282;2023-06-22T02:51:05;8.13;;;7.10;;
6392;SDS011;3229;42.674;23.282;2023-06-22T02:53:35;8.13;;;7.20;;
6392;SDS011;3229;42.674;23.282;2023-06-22T02:56:02;9.40;;;7.60;;
6392;SDS011;3229;42.674;23.282;2023-06-22T02:58:30;10.33;;;7.50;;
6392;SDS011;3229;42.674;23.282;2023-06-22T03:01:03;8.27;;;7.47;;
6392;SDS011;3229;42.674;23.282;2023-06-22T03:03:30;10.40;;;7.97;;
6392;SDS011;3229;42.674;23.282;2023-06-22T03:05:59;12.80;;;7.70;;
6392;SDS011;3229;42.674;23.282;2023-06-22T03:08:27;8.13;;;7.03;;
6392;SDS011;3229;42.674;23.282;2023-06-22T03:11:03;8.43;;;7.60;;
6392;SDS011;3229;42.674;23.282;2023-06-22T03:13:30;8.40;;;7.60;;
6392;SDS011;3229;42.674;23.282;2023-06-22T03:15:57;9.67;;;7.70;;
6392;SDS011;3229;42.674;23.282;2023-06-22T03:18:27;8.77;;;7.87;;
6392;SDS011;3229;42.674;23.282;2023-06-22T03:20:54;8.97;;;8.07;;
6392;SDS011;3229;42.674;23.282;2023-06-22T03:23:21;9.20;;;7.90;;
6392;SDS011;3229;42.674;23.282;2023-06-22T03:25:48;12.63;;;8.90;;
6392;SDS011;3229;42.674;23.282;2023-06-22T03:28:19;11.23;;;8.37;;
6392;SDS011;3229;42.674;23.282;2023-06-22T03:30:52;10.50;;;8.50;;
6392;SDS011;3229;42.674;23.282;2023-06-22T03:33:18;10.50;;;7.83;;
6392;SDS011;3229;42.674;23.282;2023-06-22T03:35:45;12.20;;;9.20;;
6392;SDS011;3229;42.674;23.282;2023-06-22T03:38:12;8.93;;;7.77;;
6392;SDS011;3229;42.674;23.282;2023-06-22T03:40:39;12.00;;;9.07;;
6392;SDS011;3229;42.674;23.282;2023-06-22T03:43:06;9.75;;;8.43;;
6392;SDS011;3229;42.674;23.282;2023-06-22T03:45:34;9.88;;;8.70;;
6392;SDS011;3229;42.674;23.282;2023-06-22T03:48:01;17.93;;;10.63;;
6392;SDS011;3229;42.674;23.282;2023-06-22T03:50:28;15.43;;;9.67;;
6392;SDS011;3229;42.674;23.282;2023-06-22T03:52:55;11.50;;;9.73;;
6392;SDS011;3229;42.674;23.282;2023-06-22T03:55:21;10.97;;;9.83;;
6392;SDS011;3229;42.674;23.282;2023-06-22T03:57:48;15.17;;;10.60;;
6392;SDS011;3229;42.674;23.282;2023-06-22T04:00:15;12.43;;;11.13;;
6392;SDS011;3229;42.674;23.282;2023-06-22T04:02:44;17.35;;;10.63;;
6392;SDS011;3229;42.674;23.282;2023-06-22T04:05:10;15.50;;;10.20;;
6392;SDS011;3229;42.674;23.282;2023-06-22T04:07:37;13.90;;;10.23;;
6392;SDS011;3229;42.674;23.282;2023-06-22T04:10:04;13.82;;;10.02;;
6392;SDS011;3229;42.674;23.282;2023-06-22T04:12:32;17.35;;;11.88;;
6392;SDS011;3229;42.674;23.282;2023-06-22T04:14:58;14.30;;;10.63;;
6392;SDS011;3229;42.674;23.282;2023-06-22T04:17:28;14.30;;;11.33;;
6392;SDS011;3229;42.674;23.282;2023-06-22T04:19:57;13.03;;;10.43;;
6392;SDS011;3229;42.674;23.282;2023-06-22T04:22:24;17.00;;;11.33;;
6392;SDS011;3229;42.674;23.282;2023-06-22T04:24:51;11.82;;;10.60;;
6392;SDS011;3229;42.674;23.282;2023-06-22T04:27:18;12.50;;;10.05;;
6392;SDS011;3229;42.674;23.282;2023-06-22T04:29:45;11.65;;;10.40;;
6392;SDS011;3229;42.674;23.282;2023-06-22T04:32:14;12.90;;;10.23;;
6392;SDS011;3229;42.674;23.282;2023-06-22T04:34:41;10.65;;;9.63;;
6392;SDS011;3229;42.674;23.282;2023-06-22T04:37:09;12.13;;;10.00;;
6392;SDS011;3229;42.674;23.282;2023-06-22T04:39:40;12.38;;;10.43;;
6392;SDS011;3229;42.674;23.282;2023-06-22T04:42:07;13.45;;;10.70;;
6392;SDS011;3229;42.674;23.282;2023-06-22T04:44:34;12.35;;;10.32;;
6392;SDS011;3229;42.674;23.282;2023-06-22T04:47:01;14.45;;;11.25;;
6392;SDS011;3229;42.674;23.282;2023-06-22T04:49:29;12.68;;;10.50;;
6392;SDS011;3229;42.674;23.282;2023-06-22T04:51:59;16.17;;;10.38;;
6392;SDS011;3229;42.674;23.282;2023-06-22T04:54:28;13.95;;;11.25;;
6392;SDS011;3229;42.674;23.282;2023-06-22T04:56:58;18.83;;;10.90;;
6392;SDS011;3229;42.674;23.282;2023-06-22T04:59:25;16.27;;;11.02;;
6392;SDS011;3229;42.674;23.282;2023-06-22T05:01:55;14.02;;;11.40;;
6392;SDS011;3229;42.674;23.282;2023-06-22T05:04:21;12.05;;;9.80;;
6392;SDS011;3229;42.674;23.282;2023-06-22T05:06:49;12.73;;;9.93;;
6392;SDS011;3229;42.674;23.282;2023-06-22T05:09:16;12.77;;;10.88;;
6392;SDS011;3229;42.674;23.282;2023-06-22T05:11:44;13.20;;;10.27;;
6392;SDS011;3229;42.674;23.282;2023-06-22T05:14:12;14.25;;;10.20;;
6392;SDS011;3229;42.674;23.282;2023-06-22T05:16:39;13.20;;;9.85;;
6392;SDS011;3229;42.674;23.282;2023-06-22T05:19:07;13.48;;;10.20;;
6392;SDS011;3229;42.674;23.282;2023-06-22T05:21:34;12.05;;;10.35;;
6392;SDS011;3229;42.674;23.282;2023-06-22T05:24:00;12.07;;;10.70;;
6392;SDS011;3229;42.674;23.282;2023-06-22T05:26:28;14.15;;;9.70;;
6392;SDS011;3229;42.674;23.282;2023-06-22T05:28:57;11.73;;;9.57;;
6392;SDS011;3229;42.674;23.282;2023-06-22T05:31:25;16.20;;;10.00;;
6392;SDS011;3229;42.674;23.282;2023-06-22T05:33:53;14.98;;;10.38;;
6392;SDS011;3229;42.674;23.282;2023-06-22T05:36:20;13.15;;;10.20;;
6392;SDS011;3229;42.674;23.282;2023-06-22T05:38:50;17.02;;;10.88;;
6392;SDS011;3229;42.674;23.282;2023-06-22T05:41:17;14.23;;;11.10;;
6392;SDS011;3229;42.674;23.282;2023-06-22T05:43:44;18.42;;;9.52;;
6392;SDS011;3229;42.674;23.282;2023-06-22T05:46:13;14.90;;;9.50;;
6392;SDS011;3229;42.674;23.282;2023-06-22T05:48:40;19.55;;;10.07;;
6392;SDS011;3229;42.674;23.282;2023-06-22T05:51:07;12.60;;;8.82;;
6392;SDS011;3229;42.674;23.282;2023-06-22T05:53:35;13.05;;;9.50;;
6392;SDS011;3229;42.674;23.282;2023-06-22T05:56:02;13.73;;;9.27;;
6392;SDS011;3229;42.674;23.282;2023-06-22T05:58:29;11.32;;;9.95;;
6392;SDS011;3229;42.674;23.282;2023-06-22T06:00:56;10.85;;;9.75;;
6392;SDS011;3229;42.674;23.282;2023-06-22T06:03:24;10.45;;;8.90;;
6392;SDS011;3229;42.674;23.282;2023-06-22T06:05:53;10.30;;;9.38;;
6392;SDS011;3229;42.674;23.282;2023-06-22T06:08:20;11.25;;;9.27;;
6392;SDS011;3229;42.674;23.282;2023-06-22T06:10:47;11.63;;;10.40;;
6392;SDS011;3229;42.674;23.282;2023-06-22T06:13:14;15.00;;;10.43;;
6392;SDS011;3229;42.674;23.282;2023-06-22T06:15:41;13.02;;;9.77;;
6392;SDS011;3229;42.674;23.282;2023-06-22T06:18:09;15.60;;;9.65;;
6392;SDS011;3229;42.674;23.282;2023-06-22T06:20:37;12.57;;;9.15;;
6392;SDS011;3229;42.674;23.282;2023-06-22T06:23:04;9.70;;;8.55;;
6392;SDS011;3229;42.674;23.282;2023-06-22T06:25:31;10.63;;;8.95;;
6392;SDS011;3229;42.674;23.282;2023-06-22T06:27:58;12.82;;;9.05;;
6392;SDS011;3229;42.674;23.282;2023-06-22T06:30:24;11.65;;;9.80;;
6392;SDS011;3229;42.674;23.282;2023-06-22T06:32:52;9.85;;;7.90;;
6392;SDS011;3229;42.674;23.282;2023-06-22T06:35:18;17.50;;;8.95;;
6392;SDS011;3229;42.674;23.282;2023-06-22T06:37:48;10.48;;;8.95;;
6392;SDS011;3229;42.674;23.282;2023-06-22T06:40:17;11.23;;;10.10;;
6392;SDS011;3229;42.674;23.282;2023-06-22T06:42:45;9.25;;;8.32;;
6392;SDS011;3229;42.674;23.282;2023-06-22T06:45:15;13.82;;;9.30;;
6392;SDS011;3229;42.674;23.282;2023-06-22T06:47:43;12.48;;;9.02;;
6392;SDS011;3229;42.674;23.282;2023-06-22T06:50:10;9.35;;;8.32;;
6392;SDS011;3229;42.674;23.282;2023-06-22T06:52:37;13.15;;;8.38;;
6392;SDS011;3229;42.674;23.282;2023-06-22T06:55:07;11.77;;;8.73;;
6392;SDS011;3229;42.674;23.282;2023-06-22T06:57:36;10.02;;;7.85;;
6392;SDS011;3229;42.674;23.282;2023-06-22T07:00:04;13.18;;;8.48;;
6392;SDS011;3229;42.674;23.282;2023-06-22T07:02:37;13.77;;;8.93;;
6392;SDS011;3229;42.674;23.282;2023-06-22T07:05:04;9.63;;;8.68;;
6392;SDS011;3229;42.674;23.282;2023-06-22T07:07:31;13.02;;;8.40;;
6392;SDS011;3229;42.674;23.282;2023-06-22T07:09:58;9.23;;;8.32;;
6392;SDS011;3229;42.674;23.282;2023-06-22T07:12:27;11.60;;;7.75;;
6392;SDS011;3229;42.674;23.282;2023-06-22T07:14:53;10.60;;;8.30;;
6392;SDS011;3229;42.674;23.282;2023-06-22T07:17:27;10.63;;;8.93;;
6392;SDS011;3229;42.674;23.282;2023-06-22T07:19:53;10.25;;;8.50;;
6392;SDS011;3229;42.674;23.282;2023-06-22T07:22:23;9.27;;;8.32;;
6392;SDS011;3229;42.674;23.282;2023-06-22T07:24:50;13.15;;;8.77;;
6392;SDS011;3229;42.674;23.282;2023-06-22T07:27:17;9.80;;;8.40;;
6392;SDS011;3229;42.674;23.282;2023-06-22T07:29:50;12.38;;;8.43;;
6392;SDS011;3229;42.674;23.282;2023-06-22T07:32:16;10.77;;;8.77;;
6392;SDS011;3229;42.674;23.282;2023-06-22T07:34:43;17.58;;;8.35;;
6392;SDS011;3229;42.674;23.282;2023-06-22T07:37:10;10.02;;;9.00;;
6392;SDS011;3229;42.674;23.282;2023-06-22T07:39:37;11.00;;;9.52;;
6392;SDS011;3229;42.674;23.282;2023-06-22T07:42:04;15.73;;;10.57;;
6392;SDS011;3229;42.674;23.282;2023-06-22T07:44:31;10.93;;;9.57;;
6392;SDS011;3229;42.674;23.282;2023-06-22T07:46:59;13.98;;;9.68;;
6392;SDS011;3229;42.674;23.282;2023-06-22T07:49:27;9.77;;;8.77;;
6392;SDS011;3229;42.674;23.282;2023-06-22T07:51:54;18.52;;;9.77;;
6392;SDS011;3229;42.674;23.282;2023-06-22T07:54:22;10.27;;;9.23;;
6392;SDS011;3229;42.674;23.282;2023-06-22T07:56:49;8.45;;;7.75;;
6392;SDS011;3229;42.674;23.282;2023-06-22T07:59:16;11.00;;;8.77;;
6392;SDS011;3229;42.674;23.282;2023-06-22T08:01:43;9.02;;;8.15;;
6392;SDS011;3229;42.674;23.282;2023-06-22T08:04:11;10.40;;;7.93;;
6392;SDS011;3229;42.674;23.282;2023-06-22T08:06:38;9.95;;;8.32;;
6392;SDS011;3229;42.674;23.282;2023-06-22T08:09:04;8.48;;;7.72;;
6392;SDS011;3229;42.674;23.282;2023-06-22T08:11:31;9.02;;;7.80;;
6392;SDS011;3229;42.674;23.282;2023-06-22T08:14:00;9.15;;;8.35;;
6392;SDS011;3229;42.674;23.282;2023-06-22T08:16:30;11.27;;;8.00;;
6392;SDS011;3229;42.674;23.282;2023-06-22T08:18:56;8.82;;;8.13;;
6392;SDS011;3229;42.674;23.282;2023-06-22T08:21:25;10.48;;;8.00;;
6392;SDS011;3229;42.674;23.282;2023-06-22T08:23:51;8.70;;;7.82;;
6392;SDS011;3229;42.674;23.282;2023-06-22T08:26:18;9.68;;;8.10;;
6392;SDS011;3229;42.674;23.282;2023-06-22T08:28:47;9.10;;;8.20;;
6392;SDS011;3229;42.674;23.282;2023-06-22T08:31:15;8.50;;;7.80;;
6392;SDS011;3229;42.674;23.282;2023-06-22T08:33:43;8.80;;;7.90;;
6392;SDS011;3229;42.674;23.282;2023-06-22T08:36:11;11.43;;;7.53;;
6392;SDS011;3229;42.674;23.282;2023-06-22T08:38:40;8.95;;;8.07;;
6392;SDS011;3229;42.674;23.282;2023-06-22T08:41:10;10.63;;;7.88;;
6392;SDS011;3229;42.674;23.282;2023-06-22T08:43:37;10.05;;;8.00;;
6392;SDS011;3229;42.674;23.282;2023-06-22T08:46:04;8.13;;;7.40;;
6392;SDS011;3229;42.674;23.282;2023-06-22T08:48:31;11.38;;;8.50;;
6392;SDS011;3229;42.674;23.282;2023-06-22T08:50:58;10.60;;;7.72;;
6392;SDS011;3229;42.674;23.282;2023-06-22T08:53:25;8.88;;;7.75;;
6392;SDS011;3229;42.674;23.282;2023-06-22T08:56:00;8.52;;;7.72;;
6392;SDS011;3229;42.674;23.282;2023-06-22T08:58:30;7.53;;;6.65;;
6392;SDS011;3229;42.674;23.282;2023-06-22T09:00:57;6.63;;;6.05;;
6392;SDS011;3229;42.674;23.282;2023-06-22T09:03:26;13.63;;;7.05;;
6392;SDS011;3229;42.674;23.282;2023-06-22T09:05:53;8.32;;;6.85;;
6392;SDS011;3229;42.674;23.282;2023-06-22T09:08:19;8.25;;;6.53;;
6392;SDS011;3229;42.674;23.282;2023-06-22T09:10:46;9.18;;;6.70;;
6392;SDS011;3229;42.674;23.282;2023-06-22T09:13:14;8.07;;;7.15;;
6392;SDS011;3229;42.674;23.282;2023-06-22T09:15:41;7.20;;;6.50;;
6392;SDS011;3229;42.674;23.282;2023-06-22T09:18:09;6.93;;;6.32;;
6392;SDS011;3229;42.674;23.282;2023-06-22T09:20:36;9.27;;;6.53;;
6392;SDS011;3229;42.674;23.282;2023-06-22T09:23:03;6.85;;;6.15;;
6392;SDS011;3229;42.674;23.282;2023-06-22T09:25:30;7.72;;;7.03;;
6392;SDS011;3229;42.674;23.282;2023-06-22T09:27:57;6.70;;;5.63;;
6392;SDS011;3229;42.674;23.282;2023-06-22T09:30:25;7.65;;;6.95;;
6392;SDS011;3229;42.674;23.282;2023-06-22T09:32:55;7.15;;;6.40;;
6392;SDS011;3229;42.674;23.282;2023-06-22T09:35:22;7.22;;;6.53;;
6392;SDS011;3229;42.674;23.282;2023-06-22T09:37:49;7.32;;;6.28;;
6392;SDS011;3229;42.674;23.282;2023-06-22T09:40:16;10.18;;;7.13;;
6392;SDS011;3229;42.674;23.282;2023-06-22T09:42:42;8.13;;;7.22;;
6392;SDS011;3229;42.674;23.282;2023-06-22T09:45:09;7.57;;;6.88;;
6392;SDS011;3229;42.674;23.282;2023-06-22T09:47:38;9.95;;;7.18;;
6392;SDS011;3229;42.674;23.282;2023-06-22T09:50:05;7.78;;;6.90;;
6392;SDS011;3229;42.674;23.282;2023-06-22T09:52:32;8.60;;;7.05;;
6392;SDS011;3229;42.674;23.282;2023-06-22T09:54:59;8.10;;;7.30;;
6392;SDS011;3229;42.674;23.282;2023-06-22T09:57:26;7.70;;;7.00;;
6392;SDS011;3229;42.674;23.282;2023-06-22T09:59:53;10.32;;;8.15;;
6392;SDS011;3229;42.674;23.282;2023-06-22T10:02:19;8.50;;;7.70;;
6392;SDS011;3229;42.674;23.282;2023-06-22T10:04:48;8.50;;;7.60;;
6392;SDS011;3229;42.674;23.282;2023-06-22T10:07:15;9.23;;;8.32;;
6392;SDS011;3229;42.674;23.282;2023-06-22T10:09:42;7.90;;;7.18;;
6392;SDS011;3229;42.674;23.282;2023-06-22T10:12:09;8.02;;;7.22;;
6392;SDS011;3229;42.674;23.282;2023-06-22T10:14:35;7.63;;;6.93;;
6392;SDS011;3229;42.674;23.282;2023-06-22T10:17:02;8.45;;;7.38;;
6392;SDS011;3229;42.674;23.282;2023-06-22T10:19:32;8.93;;;8.02;;
6392;SDS011;3229;42.674;23.282;2023-06-22T10:22:01;8.63;;;7.25;;
6392;SDS011;3229;42.674;23.282;2023-06-22T10:24:28;7.88;;;7.07;;
6392;SDS011;3229;42.674;23.282;2023-06-22T10:26:55;7.28;;;6.68;;
6392;SDS011;3229;42.674;23.282;2023-06-22T10:29:22;10.57;;;6.75;;
6392;SDS011;3229;42.674;23.282;2023-06-22T10:31:49;8.20;;;7.25;;
6392;SDS011;3229;42.674;23.282;2023-06-22T10:34:16;7.55;;;6.95;;
6392;SDS011;3229;42.674;23.282;2023-06-22T10:36:43;8.35;;;7.65;;
6392;SDS011;3229;42.674;23.282;2023-06-22T10:39:13;9.52;;;7.50;;
6392;SDS011;3229;42.674;23.282;2023-06-22T10:41:40;8.25;;;7.20;;
6392;SDS011;3229;42.674;23.282;2023-06-22T10:44:07;8.38;;;7.40;;
6392;SDS011;3229;42.674;23.282;2023-06-22T10:46:36;9.43;;;7.68;;
6392;SDS011;3229;42.674;23.282;2023-06-22T10:49:02;8.30;;;7.60;;
6392;SDS011;3229;42.674;23.282;2023-06-22T10:51:29;8.30;;;7.55;;
6392;SDS011;3229;42.674;23.282;2023-06-22T10:53:57;8.60;;;7.63;;
6392;SDS011;3229;42.674;23.282;2023-06-22T10:56:25;7.50;;;6.90;;
6392;SDS011;3229;42.674;23.282;2023-06-22T10:58:52;8.00;;;6.70;;
6392;SDS011;3229;42.674;23.282;2023-06-22T11:01:20;9.10;;;7.47;;
6392;SDS011;3229;42.674;23.282;2023-06-22T11:03:46;8.48;;;7.22;;
6392;SDS011;3229;42.674;23.282;2023-06-22T11:06:13;7.80;;;7.10;;
6392;SDS011;3229;42.674;23.282;2023-06-22T11:08:43;8.13;;;7.40;;
6392;SDS011;3229;42.674;23.282;2023-06-22T11:11:10;9.57;;;7.85;;
6392;SDS011;3229;42.674;23.282;2023-06-22T11:13:38;12.15;;;10.65;;
6392;SDS011;3229;42.674;23.282;2023-06-22T11:16:05;9.82;;;7.93;;
6392;SDS011;3229;42.674;23.282;2023-06-22T11:18:32;10.43;;;8.13;;
6392;SDS011;3229;42.674;23.282;2023-06-22T11:20:59;13.38;;;8.20;;
6392;SDS011;3229;42.674;23.282;2023-06-22T11:23:26;12.75;;;8.05;;
6392;SDS011;3229;42.674;23.282;2023-06-22T11:25:53;8.73;;;7.82;;
6392;SDS011;3229;42.674;23.282;2023-06-22T11:28:20;8.32;;;7.53;;
6392;SDS011;3229;42.674;23.282;2023-06-22T11:30:48;8.07;;;7.28;;
6392;SDS011;3229;42.674;23.282;2023-06-22T11:33:15;8.63;;;7.85;;
6392;SDS011;3229;42.674;23.282;2023-06-22T11:35:42;8.48;;;7.68;;
6392;SDS011;3229;42.674;23.282;2023-06-22T11:38:08;8.65;;;7.68;;
6392;SDS011;3229;42.674;23.282;2023-06-22T11:40:35;9.95;;;9.00;;
6392;SDS011;3229;42.674;23.282;2023-06-22T11:43:02;11.60;;;8.32;;
6392;SDS011;3229;42.674;23.282;2023-06-22T11:45:29;8.70;;;7.90;;
6392;SDS011;3229;42.674;23.282;2023-06-22T11:47:57;7.40;;;6.80;;
6392;SDS011;3229;42.674;23.282;2023-06-22T11:50:24;9.45;;;8.10;;
6392;SDS011;3229;42.674;23.282;2023-06-22T11:52:51;8.50;;;7.78;;
6392;SDS011;3229;42.674;23.282;2023-06-22T11:55:20;9.02;;;8.13;;
6392;SDS011;3229;42.674;23.282;2023-06-22T11:57:54;11.57;;;8.60;;
6392;SDS011;3229;42.674;23.282;2023-06-22T12:00:23;9.88;;;8.48;;
6392;SDS011;3229;42.674;23.282;2023-06-22T12:02:50;9.45;;;8.45;;
6392;SDS011;3229;42.674;23.282;2023-06-22T12:05:19;9.07;;;8.18;;
6392;SDS011;3229;42.674;23.282;2023-06-22T12:07:47;8.90;;;8.07;;
6392;SDS011;3229;42.674;23.282;2023-06-22T12:10:14;11.73;;;8.32;;
6392;SDS011;3229;42.674;23.282;2023-06-22T12:12:42;9.05;;;8.20;;
6392;SDS011;3229;42.674;23.282;2023-06-22T12:15:10;8.68;;;7.85;;
6392;SDS011;3229;42.674;23.282;2023-06-22T12:17:38;10.57;;;8.18;;
6392;SDS011;3229;42.674;23.282;2023-06-22T12:20:06;9.38;;;8.13;;
6392;SDS011;3229;42.674;23.282;2023-06-22T12:22:40;9.27;;;8.27;;
6392;SDS011;3229;42.674;23.282;2023-06-22T12:25:08;17.83;;;8.52;;
6392;SDS011;3229;42.674;23.282;2023-06-22T12:27:35;13.55;;;8.80;;
6392;SDS011;3229;42.674;23.282;2023-06-22T12:30:03;9.88;;;8.48;;
6392;SDS011;3229;42.674;23.282;2023-06-22T12:32:33;12.20;;;8.70;;
6392;SDS011;3229;42.674;23.282;2023-06-22T12:35:00;8.98;;;7.65;;
6392;SDS011;3229;42.674;23.282;2023-06-22T12:37:27;9.13;;;7.70;;
6392;SDS011;3229;42.674;23.282;2023-06-22T12:39:57;9.50;;;7.68;;
6392;SDS011;3229;42.674;23.282;2023-06-22T12:42:24;11.30;;;8.18;;
6392;SDS011;3229;42.674;23.282;2023-06-22T12:44:51;9.50;;;7.05;;
6392;SDS011;3229;42.674;23.282;2023-06-22T12:47:18;13.80;;;7.35;;
6392;SDS011;3229;42.674;23.282;2023-06-22T12:49:45;8.25;;;7.30;;
6392;SDS011;3229;42.674;23.282;2023-06-22T12:52:12;11.05;;;8.15;;
6392;SDS011;3229;42.674;23.282;2023-06-22T12:54:39;8.00;;;7.18;;
6392;SDS011;3229;42.674;23.282;2023-06-22T12:57:07;8.60;;;6.88;;
6392;SDS011;3229;42.674;23.282;2023-06-22T12:59:34;14.63;;;7.90;;
6392;SDS011;3229;42.674;23.282;2023-06-22T13:02:01;14.95;;;7.65;;
6392;SDS011;3229;42.674;23.282;2023-06-22T13:04:28;7.57;;;6.85;;
6392;SDS011;3229;42.674;23.282;2023-06-22T13:06:54;10.45;;;7.82;;
6392;SDS011;3229;42.674;23.282;2023-06-22T13:09:21;10.63;;;7.65;;
6392;SDS011;3229;42.674;23.282;2023-06-22T13:11:48;7.95;;;6.57;;
6392;SDS011;3229;42.674;23.282;2023-06-22T13:14:16;8.80;;;7.90;;
6392;SDS011;3229;42.674;23.282;2023-06-22T13:16:43;10.70;;;8.60;;
6392;SDS011;3229;42.674;23.282;2023-06-22T13:19:10;8.43;;;7.55;;
6392;SDS011;3229;42.674;23.282;2023-06-22T13:21:36;11.13;;;7.95;;
6392;SDS011;3229;42.674;23.282;2023-06-22T13:24:03;9.82;;;8.02;;
6392;SDS011;3229;42.674;23.282;2023-06-22T13:26:32;13.05;;;8.02;;
6392;SDS011;3229;42.674;23.282;2023-06-22T13:28:59;11.23;;;8.07;;
6392;SDS011;3229;42.674;23.282;2023-06-22T13:31:27;8.93;;;8.00;;
6392;SDS011;3229;42.674;23.282;2023-06-22T13:33:54;9.23;;;8.35;;
6392;SDS011;3229;42.674;23.282;2023-06-22T13:36:20;12.05;;;7.57;;
6392;SDS011;3229;42.674;23.282;2023-06-22T13:38:48;10.82;;;8.43;;
6392;SDS011;3229;42.674;23.282;2023-06-22T13:41:15;11.40;;;8.82;;
6392;SDS011;3229;42.674;23.282;2023-06-22T13:43:42;8.98;;;8.05;;
6392;SDS011;3229;42.674;23.282;2023-06-22T13:46:08;11.10;;;8.60;;
6392;SDS011;3229;42.674;23.282;2023-06-22T13:48:37;11.35;;;8.80;;
6392;SDS011;3229;42.674;23.282;2023-06-22T13:51:03;12.40;;;8.32;;
6392;SDS011;3229;42.674;23.282;2023-06-22T13:53:31;10.52;;;7.70;;
6392;SDS011;3229;42.674;23.282;2023-06-22T13:55:58;8.00;;;7.22;;
6392;SDS011;3229;42.674;23.282;2023-06-22T13:58:24;13.43;;;8.05;;
6392;SDS011;3229;42.674;23.282;2023-06-22T14:00:51;9.63;;;7.63;;
6392;SDS011;3229;42.674;23.282;2023-06-22T14:03:18;12.95;;;7.72;;
6392;SDS011;3229;42.674;23.282;2023-06-22T14:05:46;14.18;;;8.48;;
6392;SDS011;3229;42.674;23.282;2023-06-22T14:08:13;8.45;;;7.65;;
6392;SDS011;3229;42.674;23.282;2023-06-22T14:10:40;15.05;;;8.63;;
6392;SDS011;3229;42.674;23.282;2023-06-22T14:13:07;10.45;;;7.85;;
6392;SDS011;3229;42.674;23.282;2023-06-22T14:15:33;9.82;;;7.60;;
6392;SDS011;3229;42.674;23.282;2023-06-22T14:18:00;12.45;;;7.63;;
6392;SDS011;3229;42.674;23.282;2023-06-22T14:20:27;8.70;;;7.88;;
6392;SDS011;3229;42.674;23.282;2023-06-22T14:22:55;8.57;;;7.07;;
6392;SDS011;3229;42.674;23.282;2023-06-22T14:25:22;8.80;;;7.43;;
6392;SDS011;3229;42.674;23.282;2023-06-22T14:27:48;9.93;;;7.20;;
6392;SDS011;3229;42.674;23.282;2023-06-22T14:30:16;10.35;;;7.50;;
6392;SDS011;3229;42.674;23.282;2023-06-22T14:32:43;8.98;;;6.68;;
6392;SDS011;3229;42.674;23.282;2023-06-22T14:35:11;8.80;;;6.43;;
6392;SDS011;3229;42.674;23.282;2023-06-22T14:37:37;12.55;;;7.22;;
6392;SDS011;3229;42.674;23.282;2023-06-22T14:40:06;14.95;;;7.70;;
6392;SDS011;3229;42.674;23.282;2023-06-22T14:42:33;11.13;;;7.97;;
6392;SDS011;3229;42.674;23.282;2023-06-22T14:45:00;8.75;;;7.50;;
6392;SDS011;3229;42.674;23.282;2023-06-22T14:47:27;10.35;;;7.40;;
6392;SDS011;3229;42.674;23.282;2023-06-22T14:49:54;10.20;;;7.97;;
6392;SDS011;3229;42.674;23.282;2023-06-22T14:52:21;11.35;;;7.78;;
6392;SDS011;3229;42.674;23.282;2023-06-22T14:54:49;11.75;;;7.63;;
6392;SDS011;3229;42.674;23.282;2023-06-22T14:57:19;9.85;;;8.38;;